sensor_id;sensor_type;location;lat;lon;timestamp;P1;durP1;ratioP1;P2;durP2;ratioP2
18685;SDS011;9473;52.342;13.110;2023-02-18T00:00:13;9.70;;;1.80;;
18685;SDS011;9473;52.342;13.110;2023-02-18T00:02:41;9.90;;;1.70;;
18685;SDS011;9473;52.342;13.110;2023-02-18T00:05:08;6.78;;;1.63;;
18685;SDS011;9473;52.342;13.110;2023-02-18T00:07:35;9.18;;;1.38;;
18685;SDS011;9473;52.342;13.110;2023-02-18T00:10:02;13.30;;;1.75;;
18685;SDS011;9473;52.342;13.110;2023-02-18T00:12:30;12.52;;;2.28;;
18685;SDS011;9473;52.342;13.110;2023-02-18T00:14:57;10.75;;;1.50;;
18685;SDS011;9473;52.342;13.110;2023-02-18T00:17:24;7.85;;;1.63;;
18685;SDS011;9473;52.342;13.110;2023-02-18T00:19:51;8.05;;;1.38;;
18685;SDS011;9473;52.342;13.110;2023-02-18T00:22:18;7.18;;;1.13;;
18685;SDS011;9473;52.342;13.110;2023-02-18T00:24:45;13.55;;;1.92;;
18685;SDS011;9473;52.342;13.110;2023-02-18T00:27:12;4.70;;;1.02;;
18685;SDS011;9473;52.342;13.110;2023-02-18T00:29:40;12.30;;;1.55;;
18685;SDS011;9473;52.342;13.110;2023-02-18T00:32:07;8.23;;;1.40;;
18685;SDS011;9473;52.342;13.110;2023-02-18T00:34:34;7.85;;;1.73;;
18685;SDS011;9473;52.342;13.110;2023-02-18T00:37:01;11.95;;;1.25;;
18685;SDS011;9473;52.342;13.110;2023-02-18T00:39:27;10.18;;;1.25;;
18685;SDS011;9473;52.342;13.110;2023-02-18T00:41:55;8.60;;;1.20;;
18685;SDS011;9473;52.342;13.110;2023-02-18T00:44:22;8.02;;;1.25;;
18685;SDS011;9473;52.342;13.110;2023-02-18T00:46:50;12.25;;;1.42;;
18685;SDS011;9473;52.342;13.110;2023-02-18T00:49:17;9.75;;;1.63;;
18685;SDS011;9473;52.342;13.110;2023-02-18T00:51:44;11.25;;;1.67;;
18685;SDS011;9473;52.342;13.110;2023-02-18T00:54:11;10.40;;;1.60;;
18685;SDS011;9473;52.342;13.110;2023-02-18T00:56:38;7.45;;;1.35;;
18685;SDS011;9473;52.342;13.110;2023-02-18T00:59:04;6.53;;;1.27;;
18685;SDS011;9473;52.342;13.110;2023-02-18T01:01:31;6.65;;;1.30;;
18685;SDS011;9473;52.342;13.110;2023-02-18T01:04:00;17.23;;;2.45;;
18685;SDS011;9473;52.342;13.110;2023-02-18T01:06:27;8.00;;;1.33;;
18685;SDS011;9473;52.342;13.110;2023-02-18T01:08:54;9.70;;;1.63;;
18685;SDS011;9473;52.342;13.110;2023-02-18T01:11:21;8.10;;;1.40;;
18685;SDS011;9473;52.342;13.110;2023-02-18T01:13:48;11.50;;;1.40;;
18685;SDS011;9473;52.342;13.110;2023-02-18T01:16:15;7.63;;;1.08;;
18685;SDS011;9473;52.342;13.110;2023-02-18T01:18:42;11.00;;;1.67;;
18685;SDS011;9473;52.342;13.110;2023-02-18T01:21:10;6.55;;;1.30;;
18685;SDS011;9473;52.342;13.110;2023-02-18T01:23:37;8.10;;;1.60;;
18685;SDS011;9473;52.342;13.110;2023-02-18T01:26:05;11.98;;;1.50;;
18685;SDS011;9473;52.342;13.110;2023-02-18T01:28:32;2.88;;;0.98;;
18685;SDS011;9473;52.342;13.110;2023-02-18T01:31:02;7.38;;;1.27;;
18685;SDS011;9473;52.342;13.110;2023-02-18T01:33:30;5.53;;;1.13;;
18685;SDS011;9473;52.342;13.110;2023-02-18T01:35:57;3.58;;;0.90;;
18685;SDS011;9473;52.342;13.110;2023-02-18T01:38:25;10.48;;;1.33;;
18685;SDS011;9473;52.342;13.110;2023-02-18T01:40:52;8.10;;;1.17;;
18685;SDS011;9473;52.342;13.110;2023-02-18T01:43:20;7.38;;;1.40;;
18685;SDS011;9473;52.342;13.110;2023-02-18T01:45:51;8.32;;;1.50;;
18685;SDS011;9473;52.342;13.110;2023-02-18T01:48:23;8.00;;;1.80;;
18685;SDS011;9473;52.342;13.110;2023-02-18T01:50:52;10.15;;;1.38;;
18685;SDS011;9473;52.342;13.110;2023-02-18T01:53:20;8.48;;;1.45;;
18685;SDS011;9473;52.342;13.110;2023-02-18T01:55:51;11.25;;;1.60;;
18685;SDS011;9473;52.342;13.110;2023-02-18T01:58:17;7.40;;;1.95;;
18685;SDS011;9473;52.342;13.110;2023-02-18T02:00:45;12.85;;;1.23;;
18685;SDS011;9473;52.342;13.110;2023-02-18T02:03:12;8.43;;;1.40;;
18685;SDS011;9473;52.342;13.110;2023-02-18T02:05:39;9.45;;;1.38;;
18685;SDS011;9473;52.342;13.110;2023-02-18T02:08:06;6.38;;;1.30;;
18685;SDS011;9473;52.342;13.110;2023-02-18T02:10:40;7.03;;;1.00;;
18685;SDS011;9473;52.342;13.110;2023-02-18T02:13:11;6.97;;;1.35;;
18685;SDS011;9473;52.342;13.110;2023-02-18T02:15:42;6.43;;;1.20;;
18685;SDS011;9473;52.342;13.110;2023-02-18T02:18:19;10.05;;;1.23;;
18685;SDS011;9473;52.342;13.110;2023-02-18T02:29:20;5.53;;;1.23;;
18685;SDS011;9473;52.342;13.110;2023-02-18T02:32:02;11.30;;;1.25;;
18685;SDS011;9473;52.342;13.110;2023-02-18T02:34:38;3.75;;;1.20;;
18685;SDS011;9473;52.342;13.110;2023-02-18T02:37:11;10.07;;;1.30;;
18685;SDS011;9473;52.342;13.110;2023-02-18T02:39:42;8.10;;;1.15;;
18685;SDS011;9473;52.342;13.110;2023-02-18T02:42:14;4.60;;;0.95;;
18685;SDS011;9473;52.342;13.110;2023-02-18T02:44:44;7.70;;;1.33;;
18685;SDS011;9473;52.342;13.110;2023-02-18T02:47:17;6.30;;;1.27;;
18685;SDS011;9473;52.342;13.110;2023-02-18T02:49:48;12.05;;;1.65;;
18685;SDS011;9473;52.342;13.110;2023-02-18T02:52:19;5.75;;;1.27;;
18685;SDS011;9473;52.342;13.110;2023-02-18T02:54:47;4.95;;;0.95;;
18685;SDS011;9473;52.342;13.110;2023-02-18T03:00:00;10.10;;;1.20;;
18685;SDS011;9473;52.342;13.110;2023-02-18T03:02:30;5.85;;;1.00;;
18685;SDS011;9473;52.342;13.110;2023-02-18T03:05:06;7.72;;;1.10;;
18685;SDS011;9473;52.342;13.110;2023-02-18T03:07:46;6.13;;;1.17;;
18685;SDS011;9473;52.342;13.110;2023-02-18T03:10:22;7.93;;;1.08;;
18685;SDS011;9473;52.342;13.110;2023-02-18T03:12:52;5.13;;;1.00;;
18685;SDS011;9473;52.342;13.110;2023-02-18T03:15:26;6.63;;;1.10;;
18685;SDS011;9473;52.342;13.110;2023-02-18T03:17:58;4.55;;;1.30;;
18685;SDS011;9473;52.342;13.110;2023-02-18T03:20:29;4.88;;;0.82;;
18685;SDS011;9473;52.342;13.110;2023-02-18T03:22:57;7.63;;;0.80;;
18685;SDS011;9473;52.342;13.110;2023-02-18T03:25:25;5.45;;;1.02;;
18685;SDS011;9473;52.342;13.110;2023-02-18T03:27:55;8.15;;;1.20;;
18685;SDS011;9473;52.342;13.110;2023-02-18T03:30:24;9.77;;;1.33;;
18685;SDS011;9473;52.342;13.110;2023-02-18T03:32:54;5.13;;;1.13;;
18685;SDS011;9473;52.342;13.110;2023-02-18T03:35:21;8.63;;;1.20;;
18685;SDS011;9473;52.342;13.110;2023-02-18T03:37:52;8.70;;;0.90;;
18685;SDS011;9473;52.342;13.110;2023-02-18T03:40:24;6.57;;;1.10;;
18685;SDS011;9473;52.342;13.110;2023-02-18T03:42:51;5.57;;;0.82;;
18685;SDS011;9473;52.342;13.110;2023-02-18T03:45:18;6.85;;;1.50;;
18685;SDS011;9473;52.342;13.110;2023-02-18T03:47:45;8.93;;;1.00;;
18685;SDS011;9473;52.342;13.110;2023-02-18T03:50:12;5.45;;;0.73;;
18685;SDS011;9473;52.342;13.110;2023-02-18T03:52:39;5.60;;;1.20;;
18685;SDS011;9473;52.342;13.110;2023-02-18T03:55:07;9.30;;;1.00;;
18685;SDS011;9473;52.342;13.110;2023-02-18T03:57:34;8.90;;;1.13;;
18685;SDS011;9473;52.342;13.110;2023-02-18T04:00:02;5.80;;;1.20;;
18685;SDS011;9473;52.342;13.110;2023-02-18T04:02:30;5.13;;;1.48;;
18685;SDS011;9473;52.342;13.110;2023-02-18T04:04:57;13.52;;;0.90;;
18685;SDS011;9473;52.342;13.110;2023-02-18T04:07:24;3.53;;;0.98;;
18685;SDS011;9473;52.342;13.110;2023-02-18T04:09:51;10.10;;;1.00;;
18685;SDS011;9473;52.342;13.110;2023-02-18T04:12:19;7.95;;;1.13;;
18685;SDS011;9473;52.342;13.110;2023-02-18T04:14:46;4.88;;;1.30;;
18685;SDS011;9473;52.342;13.110;2023-02-18T04:17:13;6.93;;;0.85;;
18685;SDS011;9473;52.342;13.110;2023-02-18T04:19:39;7.13;;;0.85;;
18685;SDS011;9473;52.342;13.110;2023-02-18T04:22:06;7.47;;;0.90;;
18685;SDS011;9473;52.342;13.110;2023-02-18T04:24:33;6.72;;;1.00;;
18685;SDS011;9473;52.342;13.110;2023-02-18T04:27:00;5.45;;;0.88;;
18685;SDS011;9473;52.342;13.110;2023-02-18T04:29:28;7.20;;;1.00;;
18685;SDS011;9473;52.342;13.110;2023-02-18T04:31:55;2.67;;;0.70;;
18685;SDS011;9473;52.342;13.110;2023-02-18T04:34:22;3.58;;;0.73;;
18685;SDS011;9473;52.342;13.110;2023-02-18T04:36:49;6.75;;;1.02;;
18685;SDS011;9473;52.342;13.110;2023-02-18T04:39:16;5.13;;;0.80;;
18685;SDS011;9473;52.342;13.110;2023-02-18T04:41:43;5.78;;;0.80;;
18685;SDS011;9473;52.342;13.110;2023-02-18T04:44:10;4.75;;;0.90;;
18685;SDS011;9473;52.342;13.110;2023-02-18T04:46:38;7.25;;;1.02;;
18685;SDS011;9473;52.342;13.110;2023-02-18T04:49:05;7.68;;;1.00;;
18685;SDS011;9473;52.342;13.110;2023-02-18T04:51:32;8.98;;;1.08;;
18685;SDS011;9473;52.342;13.110;2023-02-18T04:53:59;3.80;;;0.75;;
18685;SDS011;9473;52.342;13.110;2023-02-18T04:56:26;3.03;;;0.80;;
18685;SDS011;9473;52.342;13.110;2023-02-18T04:58:52;7.60;;;0.98;;
18685;SDS011;9473;52.342;13.110;2023-02-18T05:01:19;5.43;;;0.90;;
18685;SDS011;9473;52.342;13.110;2023-02-18T05:03:47;7.50;;;1.30;;
18685;SDS011;9473;52.342;13.110;2023-02-18T05:06:14;3.90;;;0.90;;
18685;SDS011;9473;52.342;13.110;2023-02-18T05:08:41;5.60;;;1.08;;
18685;SDS011;9473;52.342;13.110;2023-02-18T05:11:08;4.88;;;0.90;;
18685;SDS011;9473;52.342;13.110;2023-02-18T05:13:35;5.47;;;0.80;;
18685;SDS011;9473;52.342;13.110;2023-02-18T05:16:02;6.13;;;0.90;;
18685;SDS011;9473;52.342;13.110;2023-02-18T05:18:29;7.75;;;0.90;;
18685;SDS011;9473;52.342;13.110;2023-02-18T05:20:57;6.82;;;0.90;;
18685;SDS011;9473;52.342;13.110;2023-02-18T05:23:24;4.78;;;0.93;;
18685;SDS011;9473;52.342;13.110;2023-02-18T05:25:51;4.97;;;0.90;;
18685;SDS011;9473;52.342;13.110;2023-02-18T05:28:18;5.78;;;1.00;;
18685;SDS011;9473;52.342;13.110;2023-02-18T05:30:45;5.72;;;0.85;;
18685;SDS011;9473;52.342;13.110;2023-02-18T05:33:12;2.08;;;0.75;;
18685;SDS011;9473;52.342;13.110;2023-02-18T05:35:39;6.05;;;1.23;;
18685;SDS011;9473;52.342;13.110;2023-02-18T05:38:07;10.20;;;1.00;;
18685;SDS011;9473;52.342;13.110;2023-02-18T05:40:34;4.97;;;0.90;;
18685;SDS011;9473;52.342;13.110;2023-02-18T05:43:01;3.88;;;0.60;;
18685;SDS011;9473;52.342;13.110;2023-02-18T05:45:28;4.03;;;0.70;;
18685;SDS011;9473;52.342;13.110;2023-02-18T05:47:54;3.97;;;1.00;;
18685;SDS011;9473;52.342;13.110;2023-02-18T05:50:21;3.40;;;1.00;;
18685;SDS011;9473;52.342;13.110;2023-02-18T05:52:48;5.10;;;0.90;;
18685;SDS011;9473;52.342;13.110;2023-02-18T05:55:16;7.18;;;0.85;;
18685;SDS011;9473;52.342;13.110;2023-02-18T05:57:44;5.68;;;0.73;;
18685;SDS011;9473;52.342;13.110;2023-02-18T06:00:11;3.20;;;0.70;;
18685;SDS011;9473;52.342;13.110;2023-02-18T06:02:38;6.78;;;0.95;;
18685;SDS011;9473;52.342;13.110;2023-02-18T06:05:05;8.48;;;0.90;;
18685;SDS011;9473;52.342;13.110;2023-02-18T06:07:32;4.95;;;0.90;;
18685;SDS011;9473;52.342;13.110;2023-02-18T06:09:59;7.43;;;0.80;;
18685;SDS011;9473;52.342;13.110;2023-02-18T06:12:27;4.55;;;0.77;;
18685;SDS011;9473;52.342;13.110;2023-02-18T06:14:54;7.10;;;1.17;;
18685;SDS011;9473;52.342;13.110;2023-02-18T06:17:21;3.90;;;1.05;;
18685;SDS011;9473;52.342;13.110;2023-02-18T06:19:48;3.97;;;1.00;;
18685;SDS011;9473;52.342;13.110;2023-02-18T06:22:15;6.03;;;1.25;;
18685;SDS011;9473;52.342;13.110;2023-02-18T06:24:42;4.20;;;0.90;;
18685;SDS011;9473;52.342;13.110;2023-02-18T06:27:09;4.07;;;0.90;;
18685;SDS011;9473;52.342;13.110;2023-02-18T06:29:37;5.07;;;1.02;;
18685;SDS011;9473;52.342;13.110;2023-02-18T06:32:04;4.38;;;0.95;;
18685;SDS011;9473;52.342;13.110;2023-02-18T06:34:31;5.70;;;1.25;;
18685;SDS011;9473;52.342;13.110;2023-02-18T06:36:58;4.57;;;0.70;;
18685;SDS011;9473;52.342;13.110;2023-02-18T06:39:25;6.50;;;1.00;;
18685;SDS011;9473;52.342;13.110;2023-02-18T06:41:52;6.43;;;0.90;;
18685;SDS011;9473;52.342;13.110;2023-02-18T06:44:18;2.65;;;0.77;;
18685;SDS011;9473;52.342;13.110;2023-02-18T06:46:47;6.88;;;0.98;;
18685;SDS011;9473;52.342;13.110;2023-02-18T06:49:14;7.15;;;1.23;;
18685;SDS011;9473;52.342;13.110;2023-02-18T06:51:40;6.68;;;1.00;;
18685;SDS011;9473;52.342;13.110;2023-02-18T06:54:07;3.78;;;1.00;;
18685;SDS011;9473;52.342;13.110;2023-02-18T06:56:34;5.45;;;0.90;;
18685;SDS011;9473;52.342;13.110;2023-02-18T06:59:01;4.55;;;0.80;;
18685;SDS011;9473;52.342;13.110;2023-02-18T07:01:28;6.65;;;0.65;;
18685;SDS011;9473;52.342;13.110;2023-02-18T07:03:56;4.18;;;0.98;;
18685;SDS011;9473;52.342;13.110;2023-02-18T07:06:23;11.32;;;1.05;;
18685;SDS011;9473;52.342;13.110;2023-02-18T07:08:50;7.70;;;1.13;;
18685;SDS011;9473;52.342;13.110;2023-02-18T07:11:17;8.00;;;1.20;;
18685;SDS011;9473;52.342;13.110;2023-02-18T07:13:44;5.10;;;1.10;;
18685;SDS011;9473;52.342;13.110;2023-02-18T07:16:11;5.72;;;1.17;;
18685;SDS011;9473;52.342;13.110;2023-02-18T07:18:37;5.88;;;0.90;;
18685;SDS011;9473;52.342;13.110;2023-02-18T07:21:06;6.47;;;1.05;;
18685;SDS011;9473;52.342;13.110;2023-02-18T07:23:33;4.78;;;1.08;;
18685;SDS011;9473;52.342;13.110;2023-02-18T07:26:03;6.72;;;1.33;;
18685;SDS011;9473;52.342;13.110;2023-02-18T07:28:31;6.82;;;1.00;;
18685;SDS011;9473;52.342;13.110;2023-02-18T07:30:57;5.55;;;1.02;;
18685;SDS011;9473;52.342;13.110;2023-02-18T07:33:24;2.08;;;0.80;;
18685;SDS011;9473;52.342;13.110;2023-02-18T07:35:52;3.55;;;0.70;;
18685;SDS011;9473;52.342;13.110;2023-02-18T07:38:20;6.22;;;1.00;;
18685;SDS011;9473;52.342;13.110;2023-02-18T07:40:47;5.57;;;0.90;;
18685;SDS011;9473;52.342;13.110;2023-02-18T07:43:14;3.75;;;1.10;;
18685;SDS011;9473;52.342;13.110;2023-02-18T07:45:41;4.88;;;0.88;;
18685;SDS011;9473;52.342;13.110;2023-02-18T07:48:08;4.72;;;0.75;;
18685;SDS011;9473;52.342;13.110;2023-02-18T07:50:37;7.25;;;1.00;;
18685;SDS011;9473;52.342;13.110;2023-02-18T07:53:04;3.85;;;1.27;;
18685;SDS011;9473;52.342;13.110;2023-02-18T07:55:32;4.63;;;0.90;;
18685;SDS011;9473;52.342;13.110;2023-02-18T07:58:13;4.85;;;1.08;;
18685;SDS011;9473;52.342;13.110;2023-02-18T08:00:40;7.57;;;1.00;;
18685;SDS011;9473;52.342;13.110;2023-02-18T08:03:07;6.65;;;1.23;;
18685;SDS011;9473;52.342;13.110;2023-02-18T08:05:34;4.03;;;1.05;;
18685;SDS011;9473;52.342;13.110;2023-02-18T08:08:01;5.45;;;1.40;;
18685;SDS011;9473;52.342;13.110;2023-02-18T08:10:28;5.18;;;1.05;;
18685;SDS011;9473;52.342;13.110;2023-02-18T08:12:56;6.53;;;1.02;;
18685;SDS011;9473;52.342;13.110;2023-02-18T08:15:23;3.22;;;0.73;;
18685;SDS011;9473;52.342;13.110;2023-02-18T08:17:51;5.18;;;1.10;;
18685;SDS011;9473;52.342;13.110;2023-02-18T08:20:18;12.35;;;2.38;;
18685;SDS011;9473;52.342;13.110;2023-02-18T08:22:45;14.02;;;3.38;;
18685;SDS011;9473;52.342;13.110;2023-02-18T08:25:12;12.68;;;3.22;;
18685;SDS011;9473;52.342;13.110;2023-02-18T08:27:39;8.52;;;2.55;;
18685;SDS011;9473;52.342;13.110;2023-02-18T08:30:07;12.02;;;2.65;;
18685;SDS011;9473;52.342;13.110;2023-02-18T08:32:35;8.70;;;2.45;;
18685;SDS011;9473;52.342;13.110;2023-02-18T08:35:05;8.10;;;1.95;;
18685;SDS011;9473;52.342;13.110;2023-02-18T08:37:32;10.85;;;1.55;;
18685;SDS011;9473;52.342;13.110;2023-02-18T08:40:00;5.97;;;1.38;;
18685;SDS011;9473;52.342;13.110;2023-02-18T08:42:27;6.57;;;1.13;;
18685;SDS011;9473;52.342;13.110;2023-02-18T08:44:54;2.88;;;0.88;;
18685;SDS011;9473;52.342;13.110;2023-02-18T08:47:22;3.83;;;0.98;;
18685;SDS011;9473;52.342;13.110;2023-02-18T08:49:49;7.35;;;1.30;;
18685;SDS011;9473;52.342;13.110;2023-02-18T08:52:16;7.25;;;1.10;;
18685;SDS011;9473;52.342;13.110;2023-02-18T08:54:43;7.47;;;1.40;;
18685;SDS011;9473;52.342;13.110;2023-02-18T08:57:10;8.93;;;1.95;;
18685;SDS011;9473;52.342;13.110;2023-02-18T08:59:37;16.90;;;2.95;;
18685;SDS011;9473;52.342;13.110;2023-02-18T09:02:04;8.45;;;2.00;;
18685;SDS011;9473;52.342;13.110;2023-02-18T09:04:32;7.38;;;1.70;;
18685;SDS011;9473;52.342;13.110;2023-02-18T09:06:59;10.43;;;1.60;;
18685;SDS011;9473;52.342;13.110;2023-02-18T09:09:26;7.30;;;1.60;;
18685;SDS011;9473;52.342;13.110;2023-02-18T09:11:53;2.92;;;1.00;;
18685;SDS011;9473;52.342;13.110;2023-02-18T09:14:19;8.30;;;1.45;;
18685;SDS011;9473;52.342;13.110;2023-02-18T09:16:46;7.13;;;1.33;;
18685;SDS011;9473;52.342;13.110;2023-02-18T09:19:14;6.05;;;1.33;;
18685;SDS011;9473;52.342;13.110;2023-02-18T09:21:42;4.70;;;1.17;;
18685;SDS011;9473;52.342;13.110;2023-02-18T09:24:09;5.25;;;1.10;;
18685;SDS011;9473;52.342;13.110;2023-02-18T09:26:37;7.57;;;1.13;;
18685;SDS011;9473;52.342;13.110;2023-02-18T09:29:04;6.65;;;1.10;;
18685;SDS011;9473;52.342;13.110;2023-02-18T09:31:30;4.43;;;1.27;;
18685;SDS011;9473;52.342;13.110;2023-02-18T09:33:59;7.53;;;1.15;;
18685;SDS011;9473;52.342;13.110;2023-02-18T09:36:26;5.38;;;1.40;;
18685;SDS011;9473;52.342;13.110;2023-02-18T09:38:54;3.75;;;0.93;;
18685;SDS011;9473;52.342;13.110;2023-02-18T09:41:32;7.45;;;1.38;;
18685;SDS011;9473;52.342;13.110;2023-02-18T09:44:01;7.22;;;1.10;;
18685;SDS011;9473;52.342;13.110;2023-02-18T09:46:30;4.95;;;1.20;;
18685;SDS011;9473;52.342;13.110;2023-02-18T09:48:59;6.15;;;1.25;;
18685;SDS011;9473;52.342;13.110;2023-02-18T09:51:26;8.05;;;1.42;;
18685;SDS011;9473;52.342;13.110;2023-02-18T09:53:55;4.35;;;1.00;;
18685;SDS011;9473;52.342;13.110;2023-02-18T09:56:25;6.47;;;1.30;;
18685;SDS011;9473;52.342;13.110;2023-02-18T09:58:52;4.63;;;1.00;;
18685;SDS011;9473;52.342;13.110;2023-02-18T10:01:21;6.75;;;1.20;;
18685;SDS011;9473;52.342;13.110;2023-02-18T10:03:50;4.75;;;1.20;;
18685;SDS011;9473;52.342;13.110;2023-02-18T10:06:19;7.00;;;1.13;;
18685;SDS011;9473;52.342;13.110;2023-02-18T10:08:48;6.03;;;1.10;;
18685;SDS011;9473;52.342;13.110;2023-02-18T10:11:17;5.60;;;1.27;;
18685;SDS011;9473;52.342;13.110;2023-02-18T10:13:47;5.70;;;1.13;;
18685;SDS011;9473;52.342;13.110;2023-02-18T10:16:15;4.45;;;0.93;;
18685;SDS011;9473;52.342;13.110;2023-02-18T10:18:43;4.05;;;0.90;;
18685;SDS011;9473;52.342;13.110;2023-02-18T10:21:14;9.23;;;1.40;;
18685;SDS011;9473;52.342;13.110;2023-02-18T10:23:42;4.15;;;1.00;;
18685;SDS011;9473;52.342;13.110;2023-02-18T10:26:15;4.22;;;0.90;;
18685;SDS011;9473;52.342;13.110;2023-02-18T10:28:44;7.63;;;1.27;;
18685;SDS011;9473;52.342;13.110;2023-02-18T10:31:13;2.40;;;1.17;;
18685;SDS011;9473;52.342;13.110;2023-02-18T10:33:41;3.95;;;0.90;;
18685;SDS011;9473;52.342;13.110;2023-02-18T10:36:16;6.35;;;1.17;;
18685;SDS011;9473;52.342;13.110;2023-02-18T10:38:55;3.47;;;1.33;;
18685;SDS011;9473;52.342;13.110;2023-02-18T10:41:27;4.20;;;1.30;;
18685;SDS011;9473;52.342;13.110;2023-02-18T10:43:58;6.22;;;1.60;;
18685;SDS011;9473;52.342;13.110;2023-02-18T10:46:31;3.33;;;1.45;;
18685;SDS011;9473;52.342;13.110;2023-02-18T10:49:03;4.93;;;1.30;;
18685;SDS011;9473;52.342;13.110;2023-02-18T10:51:31;3.70;;;1.45;;
18685;SDS011;9473;52.342;13.110;2023-02-18T10:53:59;3.42;;;1.45;;
18685;SDS011;9473;52.342;13.110;2023-02-18T10:56:34;4.70;;;1.80;;
18685;SDS011;9473;52.342;13.110;2023-02-18T10:59:05;5.00;;;1.90;;
18685;SDS011;9473;52.342;13.110;2023-02-18T11:01:35;3.63;;;1.65;;
18685;SDS011;9473;52.342;13.110;2023-02-18T11:04:04;2.88;;;1.27;;
18685;SDS011;9473;52.342;13.110;2023-02-18T11:06:32;6.38;;;1.98;;
18685;SDS011;9473;52.342;13.110;2023-02-18T11:09:03;5.35;;;1.50;;
18685;SDS011;9473;52.342;13.110;2023-02-18T11:11:31;3.08;;;1.50;;
18685;SDS011;9473;52.342;13.110;2023-02-18T11:14:00;2.70;;;1.20;;
18685;SDS011;9473;52.342;13.110;2023-02-18T11:16:37;3.17;;;1.40;;
18685;SDS011;9473;52.342;13.110;2023-02-18T11:19:04;6.07;;;1.60;;
18685;SDS011;9473;52.342;13.110;2023-02-18T11:21:33;6.30;;;1.33;;
18685;SDS011;9473;52.342;13.110;2023-02-18T11:24:05;1.80;;;1.20;;
18685;SDS011;9473;52.342;13.110;2023-02-18T11:26:33;2.45;;;1.20;;
18685;SDS011;9473;52.342;13.110;2023-02-18T11:29:02;2.08;;;1.10;;
18685;SDS011;9473;52.342;13.110;2023-02-18T11:31:36;2.10;;;1.20;;
18685;SDS011;9473;52.342;13.110;2023-02-18T11:34:05;2.13;;;1.15;;
18685;SDS011;9473;52.342;13.110;2023-02-18T11:36:37;1.73;;;1.10;;
18685;SDS011;9473;52.342;13.110;2023-02-18T11:39:04;1.95;;;1.20;;
18685;SDS011;9473;52.342;13.110;2023-02-18T11:41:33;2.85;;;1.27;;
18685;SDS011;9473;52.342;13.110;2023-02-18T11:44:01;2.38;;;1.30;;
18685;SDS011;9473;52.342;13.110;2023-02-18T11:46:28;1.73;;;1.10;;
18685;SDS011;9473;52.342;13.110;2023-02-18T11:48:56;1.90;;;1.40;;
18685;SDS011;9473;52.342;13.110;2023-02-18T11:51:36;2.60;;;1.50;;
18685;SDS011;9473;52.342;13.110;2023-02-18T11:54:18;4.00;;;1.90;;
18685;SDS011;9473;52.342;13.110;2023-02-18T11:56:53;4.15;;;1.80;;
18685;SDS011;9473;52.342;13.110;2023-02-18T11:59:20;4.32;;;1.98;;
18685;SDS011;9473;52.342;13.110;2023-02-18T12:01:49;3.97;;;1.92;;
18685;SDS011;9473;52.342;13.110;2023-02-18T12:04:18;4.03;;;2.17;;
18685;SDS011;9473;52.342;13.110;2023-02-18T12:06:51;3.33;;;1.83;;
18685;SDS011;9473;52.342;13.110;2023-02-18T12:09:21;4.85;;;2.33;;
18685;SDS011;9473;52.342;13.110;2023-02-18T12:11:50;3.70;;;2.00;;
18685;SDS011;9473;52.342;13.110;2023-02-18T12:14:18;3.65;;;2.13;;
18685;SDS011;9473;52.342;13.110;2023-02-18T12:16:49;2.90;;;1.88;;
18685;SDS011;9473;52.342;13.110;2023-02-18T12:19:23;3.08;;;1.92;;
18685;SDS011;9473;52.342;13.110;2023-02-18T12:21:56;4.55;;;2.22;;
18685;SDS011;9473;52.342;13.110;2023-02-18T12:24:46;3.75;;;2.05;;
18685;SDS011;9473;52.342;13.110;2023-02-18T12:27:16;3.72;;;2.20;;
18685;SDS011;9473;52.342;13.110;2023-02-18T12:29:50;5.55;;;2.38;;
18685;SDS011;9473;52.342;13.110;2023-02-18T12:32:25;4.53;;;2.25;;
18685;SDS011;9473;52.342;13.110;2023-02-18T12:35:02;4.38;;;1.95;;
18685;SDS011;9473;52.342;13.110;2023-02-18T12:37:37;4.93;;;2.30;;
18685;SDS011;9473;52.342;13.110;2023-02-18T12:40:13;4.45;;;1.98;;
18685;SDS011;9473;52.342;13.110;2023-02-18T12:42:48;3.63;;;2.08;;
18685;SDS011;9473;52.342;13.110;2023-02-18T12:45:25;4.45;;;2.08;;
18685;SDS011;9473;52.342;13.110;2023-02-18T12:48:02;4.65;;;2.20;;
18685;SDS011;9473;52.342;13.110;2023-02-18T12:50:35;4.70;;;1.60;;
18685;SDS011;9473;52.342;13.110;2023-02-18T12:53:15;5.63;;;1.92;;
18685;SDS011;9473;52.342;13.110;2023-02-18T12:55:49;3.00;;;1.60;;
18685;SDS011;9473;52.342;13.110;2023-02-18T12:58:23;4.13;;;1.85;;
18685;SDS011;9473;52.342;13.110;2023-02-18T13:00:57;2.28;;;1.50;;
18685;SDS011;9473;52.342;13.110;2023-02-18T13:06:28;2.35;;;1.50;;
18685;SDS011;9473;52.342;13.110;2023-02-18T13:09:02;3.03;;;1.90;;
18685;SDS011;9473;52.342;13.110;2023-02-18T13:11:44;2.22;;;1.58;;
18685;SDS011;9473;52.342;13.110;2023-02-18T13:14:15;3.08;;;1.80;;
18685;SDS011;9473;52.342;13.110;2023-02-18T13:16:44;2.80;;;1.55;;
18685;SDS011;9473;52.342;13.110;2023-02-18T13:19:15;2.22;;;1.60;;
18685;SDS011;9473;52.342;13.110;2023-02-18T13:21:45;2.08;;;1.58;;
18685;SDS011;9473;52.342;13.110;2023-02-18T13:24:15;1.85;;;1.52;;
18685;SDS011;9473;52.342;13.110;2023-02-18T13:26:44;2.20;;;1.38;;
18685;SDS011;9473;52.342;13.110;2023-02-18T13:29:17;2.40;;;1.60;;
18685;SDS011;9473;52.342;13.110;2023-02-18T13:31:46;1.70;;;1.35;;
18685;SDS011;9473;52.342;13.110;2023-02-18T13:34:19;2.38;;;1.63;;
18685;SDS011;9473;52.342;13.110;2023-02-18T13:36:55;1.58;;;1.27;;
18685;SDS011;9473;52.342;13.110;2023-02-18T13:39:25;1.90;;;1.30;;
18685;SDS011;9473;52.342;13.110;2023-02-18T13:44:39;1.42;;;1.08;;
18685;SDS011;9473;52.342;13.110;2023-02-18T13:47:06;2.70;;;1.58;;
18685;SDS011;9473;52.342;13.110;2023-02-18T13:49:36;1.55;;;1.27;;
18685;SDS011;9473;52.342;13.110;2023-02-18T13:52:05;1.98;;;1.40;;
18685;SDS011;9473;52.342;13.110;2023-02-18T13:54:33;2.47;;;1.48;;
18685;SDS011;9473;52.342;13.110;2023-02-18T13:57:04;2.25;;;1.40;;
18685;SDS011;9473;52.342;13.110;2023-02-18T13:59:33;1.42;;;1.25;;
18685;SDS011;9473;52.342;13.110;2023-02-18T14:02:19;1.63;;;1.42;;
18685;SDS011;9473;52.342;13.110;2023-02-18T14:04:55;1.55;;;1.20;;
18685;SDS011;9473;52.342;13.110;2023-02-18T14:07:28;2.13;;;1.40;;
18685;SDS011;9473;52.342;13.110;2023-02-18T14:10:04;1.92;;;1.67;;
18685;SDS011;9473;52.342;13.110;2023-02-18T14:12:35;1.80;;;1.50;;
18685;SDS011;9473;52.342;13.110;2023-02-18T14:15:40;2.22;;;1.88;;
18685;SDS011;9473;52.342;13.110;2023-02-18T14:18:08;7.57;;;3.42;;
18685;SDS011;9473;52.342;13.110;2023-02-18T14:20:42;3.13;;;1.90;;
18685;SDS011;9473;52.342;13.110;2023-02-18T14:23:11;3.10;;;1.85;;
18685;SDS011;9473;52.342;13.110;2023-02-18T14:25:39;2.15;;;1.85;;
18685;SDS011;9473;52.342;13.110;2023-02-18T14:30:48;2.13;;;1.63;;
18685;SDS011;9473;52.342;13.110;2023-02-18T14:33:18;3.35;;;1.80;;
18685;SDS011;9473;52.342;13.110;2023-02-18T14:35:46;1.77;;;1.58;;
18685;SDS011;9473;52.342;13.110;2023-02-18T14:38:21;5.20;;;3.40;;
18685;SDS011;9473;52.342;13.110;2023-02-18T14:43:52;2.60;;;2.05;;
18685;SDS011;9473;52.342;13.110;2023-02-18T14:46:24;2.50;;;1.80;;
18685;SDS011;9473;52.342;13.110;2023-02-18T14:49:04;2.72;;;1.80;;
18685;SDS011;9473;52.342;13.110;2023-02-18T14:51:33;1.95;;;1.60;;
18685;SDS011;9473;52.342;13.110;2023-02-18T14:54:01;1.98;;;1.70;;
18685;SDS011;9473;52.342;13.110;2023-02-18T14:56:31;1.73;;;1.50;;
18685;SDS011;9473;52.342;13.110;2023-02-18T14:58:59;1.90;;;1.20;;
18685;SDS011;9473;52.342;13.110;2023-02-18T15:01:29;2.05;;;1.40;;
18685;SDS011;9473;52.342;13.110;2023-02-18T15:03:56;1.02;;;0.90;;
18685;SDS011;9473;52.342;13.110;2023-02-18T15:06:27;1.65;;;0.90;;
18685;SDS011;9473;52.342;13.110;2023-02-18T15:08:55;2.35;;;0.90;;
18685;SDS011;9473;52.342;13.110;2023-02-18T15:11:22;1.70;;;1.15;;
18685;SDS011;9473;52.342;13.110;2023-02-18T15:13:50;0.80;;;0.80;;
18685;SDS011;9473;52.342;13.110;2023-02-18T15:16:18;1.15;;;0.80;;
18685;SDS011;9473;52.342;13.110;2023-02-18T15:18:47;1.00;;;0.70;;